createdAt,value
2018-07-23T00:00:58.575Z,1.00
2018-07-23T00:03:26.270Z,1.00
2018-07-23T00:05:53.894Z,1.00
2018-07-23T00:08:21.334Z,1.00
2018-07-23T00:10:48.755Z,1.00
2018-07-23T00:13:17.227Z,1.00
2018-07-23T00:18:11.950Z,1.00
2018-07-23T00:20:39.339Z,1.70
2018-07-23T00:23:07.070Z,1.40
2018-07-23T00:25:34.490Z,1.20
2018-07-23T00:28:01.830Z,2.00
2018-07-23T00:30:29.249Z,2.90
2018-07-23T00:32:56.590Z,2.60
2018-07-23T00:35:24.073Z,3.20
2018-07-23T00:37:51.540Z,2.40
2018-07-23T00:40:19.061Z,2.60
2018-07-23T00:42:46.480Z,2.30
2018-07-23T00:45:13.812Z,2.00
2018-07-23T00:47:41.253Z,2.30
2018-07-23T00:50:08.666Z,3.90
2018-07-23T00:55:03.869Z,2.30
2018-07-23T00:57:31.235Z,2.70
2018-07-23T00:59:58.717Z,2.50
2018-07-23T01:02:26.127Z,3.20
2018-07-23T01:04:53.550Z,4.30
2018-07-23T01:07:20.970Z,2.80
2018-07-23T01:09:48.526Z,3.00
2018-07-23T01:12:28.642Z,2.80
2018-07-23T01:14:56.519Z,2.80
2018-07-23T01:17:23.949Z,3.40
2018-07-23T01:19:52.314Z,3.90
2018-07-23T01:22:20.101Z,3.60
2018-07-23T01:24:47.706Z,4.20
2018-07-23T01:27:15.137Z,3.50
2018-07-23T01:29:42.506Z,4.40
2018-07-23T01:32:09.887Z,4.80
2018-07-23T01:34:37.374Z,5.50
2018-07-23T01:37:04.922Z,5.90
2018-07-23T01:39:36.743Z,5.00
2018-07-23T01:42:04.910Z,5.40
2018-07-23T01:44:32.443Z,5.50
2018-07-23T01:46:59.878Z,6.00
2018-07-23T01:49:27.274Z,7.30
2018-07-23T01:51:54.645Z,8.10
2018-07-23T01:54:22.277Z,8.90
2018-07-23T01:56:49.666Z,8.10
2018-07-23T01:59:17.295Z,7.60
2018-07-23T02:01:44.688Z,7.70
2018-07-23T02:04:12.079Z,7.60
2018-07-23T02:06:39.410Z,8.30
2018-07-23T02:09:08.507Z,9.70
2018-07-23T02:11:35.908Z,8.70
2018-07-23T02:14:03.364Z,7.90
2018-07-23T02:16:30.800Z,8.70
2018-07-23T02:18:58.115Z,9.10
2018-07-23T02:21:25.582Z,7.60
2018-07-23T02:23:53.070Z,7.50
2018-07-23T02:26:20.469Z,7.70
2018-07-23T02:28:47.877Z,7.50
2018-07-23T02:31:15.281Z,7.40
2018-07-23T02:33:42.620Z,7.40
2018-07-23T02:36:10.031Z,7.30
2018-07-23T02:38:37.406Z,7.20
2018-07-23T02:41:04.917Z,7.40
2018-07-23T02:43:32.311Z,7.40
2018-07-23T02:45:59.682Z,8.10
2018-07-23T02:48:27.119Z,7.40
2018-07-23T02:50:54.579Z,7.40
2018-07-23T02:53:21.994Z,7.50
2018-07-23T02:55:49.495Z,7.50
2018-07-23T02:58:16.951Z,7.90
2018-07-23T03:00:44.417Z,7.50
2018-07-23T03:03:11.814Z,7.50
2018-07-23T03:05:39.261Z,6.40
2018-07-23T03:08:06.794Z,6.70
2018-07-23T03:10:34.277Z,5.80
2018-07-23T03:13:01.751Z,5.70
2018-07-23T03:15:29.167Z,5.50
2018-07-23T03:17:56.736Z,5.60
2018-07-23T03:20:26.457Z,5.50
2018-07-23T03:22:56.747Z,5.80
2018-07-23T03:25:24.292Z,5.30
2018-07-23T03:27:51.786Z,5.90
2018-07-23T03:30:19.266Z,5.20
2018-07-23T03:32:46.671Z,5.60
2018-07-23T03:35:14.103Z,6.70
2018-07-23T03:37:41.587Z,5.90
2018-07-23T03:40:09.062Z,7.10
2018-07-23T03:42:36.522Z,5.70
2018-07-23T03:45:04.615Z,6.50
2018-07-23T03:47:32.091Z,7.10
2018-07-23T03:49:59.514Z,7.10
2018-07-23T03:52:27.746Z,7.00
2018-07-23T03:54:55.130Z,6.30
2018-07-23T03:57:22.630Z,6.80
2018-07-23T03:59:50.077Z,6.40
2018-07-23T04:02:17.709Z,6.10
2018-07-23T04:04:45.176Z,6.80
2018-07-23T04:07:12.626Z,6.80
2018-07-23T04:09:40.107Z,6.70
2018-07-23T04:12:07.586Z,7.60
2018-07-23T04:14:34.956Z,7.60
2018-07-23T04:17:02.388Z,7.30
2018-07-23T04:19:29.965Z,7.60
2018-07-23T04:21:57.985Z,7.60
2018-07-23T04:24:36.610Z,7.60
2018-07-23T04:27:04.142Z,7.60
2018-07-23T04:29:31.568Z,7.60
2018-07-23T04:31:58.972Z,7.30
2018-07-23T04:34:26.434Z,7.60
2018-07-23T04:36:53.930Z,7.60
2018-07-23T04:39:21.284Z,9.30
2018-07-23T04:44:16.144Z,7.50
2018-07-23T04:46:43.598Z,7.50
2018-07-23T04:49:11.059Z,7.60
2018-07-23T04:51:38.450Z,7.30
2018-07-23T04:54:05.826Z,8.10
2018-07-23T04:56:33.482Z,9.20
2018-07-23T04:59:00.937Z,7.60
2018-07-23T05:01:28.923Z,7.10
2018-07-23T05:03:56.374Z,9.00
2018-07-23T05:06:23.870Z,8.80
2018-07-23T05:08:51.546Z,7.60
2018-07-23T05:11:18.945Z,7.50
2018-07-23T05:13:46.462Z,6.80
2018-07-23T05:16:13.850Z,6.50
2018-07-23T05:18:41.390Z,7.00
2018-07-23T05:21:08.802Z,6.50
2018-07-23T05:23:36.341Z,6.90
2018-07-23T05:26:03.810Z,6.80
2018-07-23T05:28:31.233Z,7.10
2018-07-23T05:31:11.899Z,7.60
2018-07-23T05:38:57.823Z,7.70
2018-07-23T05:41:25.494Z,7.80
2018-07-23T05:46:20.822Z,7.80
2018-07-23T05:48:48.447Z,7.50
2018-07-23T05:51:16.331Z,7.00
2018-07-23T05:56:11.626Z,6.40
2018-07-23T05:58:39.277Z,6.20
2018-07-23T06:01:07.275Z,6.70
2018-07-23T06:03:35.016Z,5.60
2018-07-23T06:06:03.097Z,5.10
2018-07-23T06:08:30.730Z,4.60
2018-07-23T06:10:58.333Z,5.20
2018-07-23T06:13:25.979Z,4.40
2018-07-23T06:15:53.550Z,3.50
2018-07-23T06:18:21.190Z,3.80
2018-07-23T06:20:48.803Z,3.10
2018-07-23T06:23:16.494Z,2.80
2018-07-23T06:25:44.126Z,2.90
2018-07-23T06:28:11.738Z,1.70
2018-07-23T06:30:39.390Z,1.00
2018-07-23T06:33:07.130Z,1.00
2018-07-23T06:35:34.846Z,1.00
2018-07-23T06:38:02.967Z,1.00
2018-07-23T06:40:30.749Z,1.00
2018-07-23T06:42:58.347Z,1.00
2018-07-23T06:45:25.951Z,1.00
2018-07-23T06:47:53.558Z,1.00
2018-07-23T06:50:22.714Z,1.00
2018-07-23T06:52:50.362Z,1.00
2018-07-23T06:55:17.978Z,1.00
2018-07-23T06:57:45.602Z,1.00
2018-07-23T07:00:13.289Z,1.00
2018-07-23T07:02:40.921Z,1.00
2018-07-23T07:05:08.542Z,1.00
2018-07-23T07:07:36.241Z,1.00
2018-07-23T07:10:04.190Z,1.00
2018-07-23T07:12:31.851Z,1.00
2018-07-23T07:14:59.476Z,1.00
2018-07-23T07:17:27.159Z,1.00
2018-07-23T07:20:00.713Z,1.00
2018-07-23T07:22:28.200Z,1.00
2018-07-23T07:24:55.822Z,1.00
2018-07-23T07:27:23.916Z,1.00
2018-07-23T07:29:51.561Z,1.00
2018-07-23T07:32:19.293Z,1.00
2018-07-23T07:34:46.958Z,1.00
2018-07-23T07:37:14.994Z,1.00
2018-07-23T07:39:43.444Z,1.00
2018-07-23T07:42:11.136Z,1.00
2018-07-23T07:44:39.014Z,1.00
2018-07-23T07:47:06.738Z,1.00
2018-07-23T07:49:34.812Z,1.00
2018-07-23T07:52:02.506Z,1.00
2018-07-23T07:54:30.156Z,1.00
2018-07-23T07:56:58.000Z,1.00
2018-07-23T07:59:25.765Z,1.00
2018-07-23T08:01:53.362Z,1.00
2018-07-23T08:04:21.091Z,1.00
2018-07-23T08:06:48.714Z,1.00
2018-07-23T08:09:16.351Z,1.00
2018-07-23T08:11:45.087Z,1.00
2018-07-23T08:14:12.743Z,1.00
2018-07-23T08:16:40.425Z,1.00
2018-07-23T08:19:08.026Z,1.00
2018-07-23T08:21:40.641Z,1.00
2018-07-23T08:24:08.225Z,1.00
2018-07-23T08:26:35.862Z,1.00
2018-07-23T08:29:03.521Z,1.00
2018-07-23T08:31:31.192Z,1.00
2018-07-23T08:34:05.606Z,1.00
2018-07-23T08:36:33.375Z,1.00
2018-07-23T08:39:00.977Z,1.00
2018-07-23T08:41:28.602Z,1.00
2018-07-23T08:43:56.263Z,1.00
2018-07-23T08:46:27.775Z,1.00
2018-07-23T08:48:55.431Z,1.00
2018-07-23T08:51:23.028Z,1.00
2018-07-23T08:53:50.650Z,1.00
2018-07-23T08:56:18.338Z,1.00
2018-07-23T08:58:51.456Z,1.00
2018-07-23T09:01:19.103Z,1.00
2018-07-23T09:03:46.786Z,1.00
2018-07-23T09:06:14.390Z,1.00
2018-07-23T09:08:42.122Z,1.00
2018-07-23T09:11:09.554Z,1.00
2018-07-23T09:13:40.131Z,1.00
2018-07-23T09:16:07.948Z,1.00
2018-07-23T09:18:35.514Z,1.00
2018-07-23T09:21:03.202Z,1.00
2018-07-23T09:23:30.773Z,1.00
2018-07-23T09:25:58.405Z,1.00
2018-07-23T09:28:29.895Z,1.00
2018-07-23T09:30:57.540Z,1.00
2018-07-23T09:33:25.265Z,1.00
2018-07-23T09:35:53.226Z,1.00
2018-07-23T09:38:21.678Z,1.00
2018-07-23T09:40:49.299Z,1.00
2018-07-23T09:43:16.997Z,1.00
2018-07-23T09:45:44.642Z,1.00
2018-07-23T09:48:12.250Z,1.00
2018-07-23T09:50:39.810Z,1.00
2018-07-23T09:53:07.357Z,1.00
2018-07-23T09:55:34.993Z,1.00
2018-07-23T09:58:02.542Z,1.00
2018-07-23T10:00:35.958Z,1.00
2018-07-23T10:03:03.749Z,1.00
2018-07-23T10:05:31.234Z,1.00
2018-07-23T10:07:58.794Z,1.00
2018-07-23T10:10:26.400Z,1.00
2018-07-23T10:12:53.978Z,1.00
2018-07-23T10:15:21.578Z,1.00
2018-07-23T10:17:49.166Z,1.00
2018-07-23T10:20:16.803Z,1.00
2018-07-23T10:22:44.347Z,1.00
2018-07-23T10:25:11.949Z,1.00
2018-07-23T10:27:39.555Z,1.00
2018-07-23T10:30:07.135Z,1.00
2018-07-23T10:32:35.139Z,1.00
2018-07-23T10:35:02.878Z,1.00
2018-07-23T10:37:30.438Z,1.00
2018-07-23T10:39:58.106Z,1.00
2018-07-23T10:42:25.754Z,1.00
2018-07-23T10:44:54.054Z,1.00
2018-07-23T10:47:21.750Z,1.00
2018-07-23T10:49:49.460Z,1.00
2018-07-23T10:52:17.052Z,1.00
2018-07-23T10:54:44.631Z,1.00
2018-07-23T10:57:12.478Z,1.00
2018-07-23T10:59:40.002Z,1.00
2018-07-23T11:02:07.606Z,1.00
2018-07-23T11:04:35.230Z,1.00
2018-07-23T11:07:02.837Z,1.00
2018-07-23T11:09:30.445Z,1.00
2018-07-23T11:11:58.007Z,1.00
2018-07-23T11:14:25.620Z,1.00
2018-07-23T11:16:53.207Z,1.00
2018-07-23T11:19:20.928Z,1.00
2018-07-23T11:21:48.405Z,1.00
2018-07-23T11:24:16.002Z,1.00
2018-07-23T11:26:43.619Z,1.00
2018-07-23T11:29:11.142Z,1.00
2018-07-23T11:31:38.739Z,1.00
2018-07-23T11:34:06.489Z,1.00
2018-07-23T11:36:34.365Z,1.00
2018-07-23T11:39:02.173Z,1.00
2018-07-23T11:41:29.693Z,1.00
2018-07-23T11:43:57.259Z,1.00
2018-07-23T11:48:52.386Z,1.00
2018-07-23T11:51:19.994Z,1.00
2018-07-23T11:53:47.658Z,1.00
2018-07-23T11:56:15.279Z,1.00
2018-07-23T11:58:42.969Z,1.00
2018-07-23T12:01:10.582Z,1.00
2018-07-23T12:03:38.285Z,1.00
2018-07-23T12:06:05.893Z,1.00
2018-07-23T12:08:33.574Z,1.00
2018-07-23T12:11:01.279Z,1.00
2018-07-23T12:13:28.884Z,1.00
2018-07-23T12:15:56.585Z,1.00
2018-07-23T12:18:24.199Z,1.00
2018-07-23T12:20:51.749Z,1.00
2018-07-23T12:23:19.554Z,1.00
2018-07-23T12:25:47.148Z,1.00
2018-07-23T12:28:14.791Z,1.00
2018-07-23T12:30:42.445Z,1.00
2018-07-23T12:33:10.079Z,1.00
2018-07-23T12:35:37.696Z,1.00
2018-07-23T12:38:05.304Z,1.00
2018-07-23T12:40:32.903Z,1.00
2018-07-23T12:45:28.218Z,1.00
2018-07-23T12:47:55.925Z,1.00
2018-07-23T12:50:23.570Z,1.00
2018-07-23T12:52:51.181Z,1.00
2018-07-23T12:55:18.808Z,1.00
2018-07-23T12:57:46.430Z,1.00
2018-07-23T13:00:13.980Z,1.00
2018-07-23T13:02:41.534Z,1.00
2018-07-23T13:05:09.130Z,1.00
2018-07-23T13:07:36.682Z,1.00
2018-07-23T13:12:35.259Z,1.00
2018-07-23T13:15:02.670Z,1.00
2018-07-23T13:17:30.052Z,1.00
2018-07-23T13:19:57.435Z,1.00
2018-07-23T13:22:31.037Z,1.00
2018-07-23T13:24:58.411Z,1.00
2018-07-23T13:27:25.758Z,1.00
2018-07-23T13:29:53.087Z,1.00
2018-07-23T13:32:20.592Z,1.00
2018-07-23T13:34:47.925Z,1.00
2018-07-23T13:37:16.574Z,1.00
2018-07-23T13:39:43.954Z,1.00
2018-07-23T13:42:11.354Z,1.00
2018-07-23T13:44:38.769Z,1.00
2018-07-23T13:47:06.344Z,1.00
2018-07-23T13:49:33.798Z,1.00
2018-07-23T13:52:01.182Z,1.00
2018-07-23T13:54:30.394Z,1.00
2018-07-23T13:56:57.633Z,1.00
2018-07-23T13:59:25.028Z,1.00
2018-07-23T14:01:52.427Z,1.00
2018-07-23T14:04:27.909Z,1.00
2018-07-23T14:06:55.350Z,1.00
2018-07-23T14:09:22.719Z,1.00
2018-07-23T14:11:50.101Z,1.00
2018-07-23T14:14:17.555Z,1.00
2018-07-23T14:16:45.094Z,1.00
2018-07-23T14:19:12.521Z,1.00
2018-07-23T14:21:39.962Z,1.00
2018-07-23T14:24:07.404Z,1.00
2018-07-23T14:26:34.985Z,1.00
2018-07-23T14:29:04.682Z,1.00
2018-07-23T14:31:32.312Z,1.00
2018-07-23T14:34:01.134Z,1.00
2018-07-23T14:36:28.556Z,1.00
2018-07-23T14:38:55.974Z,1.00
2018-07-23T14:41:23.454Z,1.00
2018-07-23T14:43:52.096Z,1.00
2018-07-23T14:46:19.505Z,1.00
2018-07-23T14:48:46.903Z,1.00
2018-07-23T14:51:14.386Z,1.00
2018-07-23T14:53:42.759Z,1.00
2018-07-23T14:56:10.179Z,1.00
2018-07-23T14:58:37.585Z,1.00
2018-07-23T15:01:05.211Z,1.00
2018-07-23T15:03:32.682Z,1.00
2018-07-23T15:06:00.217Z,1.00
2018-07-23T15:08:27.654Z,1.00
2018-07-23T15:10:55.074Z,1.00
2018-07-23T15:13:22.490Z,1.00
2018-07-23T15:15:50.162Z,1.00
2018-07-23T15:18:17.579Z,1.00
2018-07-23T15:20:45.170Z,1.00
2018-07-23T15:23:13.119Z,1.00
2018-07-23T15:25:40.559Z,1.00
2018-07-23T15:28:07.973Z,1.00
2018-07-23T15:30:35.366Z,1.00
2018-07-23T15:33:02.845Z,1.00
2018-07-23T15:35:30.243Z,1.00
2018-07-23T15:37:58.180Z,1.00
2018-07-23T15:40:25.908Z,1.00
2018-07-23T15:42:53.642Z,1.00
2018-07-23T15:45:21.176Z,1.00
2018-07-23T15:47:48.499Z,1.00
2018-07-23T15:50:15.942Z,1.00
2018-07-23T15:52:43.398Z,1.00
2018-07-23T15:55:10.817Z,1.00
2018-07-23T15:57:38.219Z,1.00
2018-07-23T16:00:06.166Z,1.00
2018-07-23T16:02:33.715Z,1.00
2018-07-23T16:05:01.142Z,1.00
2018-07-23T16:07:28.523Z,1.00
2018-07-23T16:09:56.022Z,1.00
2018-07-23T16:12:23.383Z,1.00
2018-07-23T16:14:50.744Z,1.00
2018-07-23T16:17:18.205Z,1.00
2018-07-23T16:19:45.665Z,1.00
2018-07-23T16:22:13.117Z,1.00
2018-07-23T16:24:40.551Z,1.00
2018-07-23T16:27:07.981Z,1.00
2018-07-23T16:29:35.545Z,1.00
2018-07-23T16:32:02.978Z,1.00
2018-07-23T16:34:30.359Z,1.00
2018-07-23T16:36:58.098Z,1.00
2018-07-23T16:39:25.450Z,1.00
2018-07-23T16:41:53.396Z,1.00
2018-07-23T16:44:20.902Z,1.00
2018-07-23T16:46:48.355Z,1.00
2018-07-23T16:49:15.653Z,1.00
2018-07-23T16:51:43.088Z,1.00
2018-07-23T16:54:10.564Z,1.00
2018-07-23T16:56:38.037Z,1.00
2018-07-23T16:59:05.403Z,1.00
2018-07-23T17:01:32.825Z,1.00
2018-07-23T17:04:00.673Z,1.00
2018-07-23T17:06:28.332Z,1.00
2018-07-23T17:08:55.750Z,1.00
2018-07-23T17:11:23.206Z,1.00
2018-07-23T17:13:50.725Z,1.00
2018-07-23T17:16:18.117Z,1.00
2018-07-23T17:18:45.575Z,1.00
2018-07-23T17:21:13.601Z,1.00
2018-07-23T17:23:53.946Z,1.00
2018-07-23T17:26:23.350Z,1.00
2018-07-23T17:28:53.735Z,1.00
2018-07-23T17:31:21.718Z,1.00
2018-07-23T17:33:49.165Z,1.00
2018-07-23T17:36:16.603Z,1.00
2018-07-23T17:38:47.764Z,1.00
2018-07-23T17:41:15.170Z,1.00
2018-07-23T17:43:42.541Z,1.00
2018-07-23T17:46:09.926Z,1.00
2018-07-23T17:48:42.920Z,1.00
2018-07-23T17:51:10.691Z,1.00
2018-07-23T17:53:38.109Z,1.00
2018-07-23T17:56:05.614Z,1.00
2018-07-23T17:58:32.976Z,1.00
2018-07-23T18:01:05.935Z,1.00
2018-07-23T18:03:33.350Z,1.00
2018-07-23T18:06:01.022Z,1.00
2018-07-23T18:08:28.761Z,1.00
2018-07-23T18:10:57.105Z,1.00
2018-07-23T18:13:24.970Z,1.00
2018-07-23T18:15:52.462Z,1.00
2018-07-23T18:18:19.934Z,1.00
2018-07-23T18:20:47.301Z,1.00
2018-07-23T18:23:14.644Z,1.00
2018-07-23T18:25:42.135Z,1.00
2018-07-23T18:28:09.457Z,1.00
2018-07-23T18:30:36.842Z,1.00
2018-07-23T18:33:04.323Z,1.00
2018-07-23T18:35:31.700Z,1.00
2018-07-23T18:37:59.118Z,1.00
2018-07-23T18:40:26.549Z,1.00
2018-07-23T18:42:53.977Z,1.00
2018-07-23T18:47:49.109Z,1.00
2018-07-23T18:50:16.579Z,1.00
2018-07-23T18:52:43.986Z,1.00
2018-07-23T18:55:11.390Z,1.00
2018-07-23T18:57:38.867Z,1.00
2018-07-23T19:00:06.405Z,1.00
2018-07-23T19:02:34.030Z,1.00
2018-07-23T19:05:01.454Z,1.00
2018-07-23T19:07:28.793Z,1.00
2018-07-23T19:09:56.150Z,1.00
2018-07-23T19:12:23.550Z,1.00
2018-07-23T19:14:51.395Z,1.00
2018-07-23T19:17:18.820Z,1.00
2018-07-23T19:19:46.281Z,1.00
2018-07-23T19:22:13.637Z,1.00
2018-07-23T19:24:41.029Z,1.00
2018-07-23T19:27:08.471Z,1.00
2018-07-23T19:29:35.807Z,1.00
2018-07-23T19:32:03.206Z,1.00
2018-07-23T19:34:30.561Z,1.00
2018-07-23T19:36:57.920Z,1.00
2018-07-23T19:39:25.325Z,1.00
2018-07-23T19:41:52.711Z,1.00
2018-07-23T19:44:20.065Z,1.00
2018-07-23T19:46:47.618Z,1.00
2018-07-23T19:49:14.987Z,1.00
2018-07-23T19:51:42.422Z,1.00
2018-07-23T19:54:10.179Z,1.00
2018-07-23T19:56:37.562Z,1.00
2018-07-23T19:59:05.036Z,1.00
2018-07-23T20:01:32.697Z,1.00
2018-07-23T20:04:00.307Z,1.00
2018-07-23T20:06:28.675Z,1.00
2018-07-23T20:08:56.980Z,1.00
2018-07-23T20:11:25.117Z,1.00
2018-07-23T20:13:52.507Z,1.00
2018-07-23T20:16:20.193Z,1.00
2018-07-23T20:18:47.668Z,1.00
2018-07-23T20:21:15.154Z,1.00
2018-07-23T20:23:42.848Z,1.00
2018-07-23T20:26:10.236Z,1.00
2018-07-23T20:28:37.790Z,1.00
2018-07-23T20:31:05.618Z,1.00
2018-07-23T20:33:33.322Z,1.00
2018-07-23T20:36:01.291Z,1.00
2018-07-23T20:38:28.871Z,1.00
2018-07-23T20:40:56.325Z,1.00
2018-07-23T20:43:25.526Z,1.00
2018-07-23T20:45:53.115Z,1.00
2018-07-23T20:48:21.261Z,1.00
2018-07-23T20:50:48.697Z,1.00
2018-07-23T20:53:16.193Z,1.00
2018-07-23T20:55:43.657Z,1.00
2018-07-23T20:58:11.095Z,1.00
2018-07-23T21:00:38.542Z,1.00
2018-07-23T21:03:06.095Z,1.00
2018-07-23T21:05:34.230Z,1.00
2018-07-23T21:08:01.619Z,1.00
2018-07-23T21:10:28.961Z,1.00
2018-07-23T21:12:56.317Z,1.00
2018-07-23T21:15:23.705Z,1.00
2018-07-23T21:17:51.089Z,1.00
2018-07-23T21:20:18.480Z,1.00
2018-07-23T21:22:45.946Z,1.00
2018-07-23T21:25:13.415Z,1.00
2018-07-23T21:27:40.794Z,1.00
2018-07-23T21:30:08.190Z,1.00
2018-07-23T21:32:35.907Z,1.00
2018-07-23T21:35:04.165Z,1.00
2018-07-23T21:37:31.501Z,1.00
2018-07-23T21:39:58.958Z,1.00
2018-07-23T21:42:26.350Z,1.00
2018-07-23T21:44:53.769Z,1.00
2018-07-23T21:47:21.131Z,1.00
2018-07-23T21:49:48.510Z,1.00
2018-07-23T21:52:16.030Z,1.00
2018-07-23T21:54:43.382Z,1.00
2018-07-23T21:57:10.829Z,1.00
2018-07-23T21:59:38.725Z,1.00
2018-07-23T22:02:06.268Z,1.00
2018-07-23T22:04:33.840Z,1.00
2018-07-23T22:07:01.398Z,1.00
2018-07-23T22:09:28.787Z,1.00
2018-07-23T22:11:56.669Z,1.00
2018-07-23T22:14:24.077Z,1.00
2018-07-23T22:16:51.464Z,1.00
2018-07-23T22:19:18.857Z,1.00
2018-07-23T22:21:46.309Z,1.00
2018-07-23T22:24:13.752Z,1.00
2018-07-23T22:26:41.158Z,1.00
2018-07-23T22:29:08.640Z,1.00
2018-07-23T22:31:36.258Z,1.00
2018-07-23T22:34:03.802Z,1.00
2018-07-23T22:36:31.199Z,1.00
2018-07-23T22:38:58.594Z,1.00
2018-07-23T22:41:26.001Z,1.00
2018-07-23T22:43:53.535Z,1.00
2018-07-23T22:46:20.926Z,1.40
2018-07-23T22:48:48.367Z,1.20
2018-07-23T22:51:15.788Z,1.00
2018-07-23T22:53:43.288Z,1.00
2018-07-23T22:56:12.722Z,1.30
2018-07-23T22:58:40.126Z,2.60
2018-07-23T23:01:10.089Z,1.10
2018-07-23T23:03:37.484Z,1.00
2018-07-23T23:06:05.432Z,1.20
2018-07-23T23:11:00.209Z,2.50
2018-07-23T23:13:27.586Z,2.80
2018-07-23T23:15:54.983Z,2.60
2018-07-23T23:18:22.447Z,2.20
2018-07-23T23:20:49.843Z,1.70
2018-07-23T23:23:17.330Z,1.60
2018-07-23T23:25:44.770Z,2.90
2018-07-23T23:28:12.194Z,3.50
2018-07-23T23:30:39.651Z,2.50
2018-07-23T23:33:07.047Z,3.30
2018-07-23T23:35:34.624Z,4.60
2018-07-23T23:38:02.267Z,4.90
2018-07-23T23:40:29.750Z,3.50
2018-07-23T23:42:57.459Z,3.40
2018-07-23T23:45:24.817Z,4.30
2018-07-23T23:47:52.179Z,4.10
2018-07-23T23:50:19.587Z,4.70
2018-07-23T23:52:46.952Z,4.40
2018-07-23T23:55:14.357Z,4.10
2018-07-23T23:57:41.743Z,3.40
